createdAt,value
2018-12-22T00:01:39.052Z,89.24
2018-12-22T00:04:07.513Z,88.78
2018-12-22T00:06:36.034Z,88.33
2018-12-22T00:09:05.743Z,88.68
2018-12-22T00:11:34.200Z,88.86
2018-12-22T00:14:03.684Z,88.53
2018-12-22T00:16:34.884Z,88.65
2018-12-22T00:19:20.495Z,88.50
2018-12-22T00:21:49.349Z,88.50
2018-12-22T00:24:17.775Z,88.37
2018-12-22T00:26:46.288Z,88.54
2018-12-22T00:29:14.945Z,88.12
2018-12-22T00:31:43.663Z,88.34
2018-12-22T00:34:12.196Z,88.46
2018-12-22T00:36:40.716Z,88.47
2018-12-22T00:39:09.177Z,88.53
2018-12-22T00:41:37.646Z,90.08
2018-12-22T00:44:06.331Z,89.82
2018-12-22T00:46:35.108Z,89.63
2018-12-22T00:49:03.627Z,89.44
2018-12-22T00:51:32.307Z,89.43
2018-12-22T00:54:00.772Z,89.68
2018-12-22T00:56:29.274Z,90.14
2018-12-22T00:58:58.004Z,88.47
2018-12-22T01:01:26.470Z,89.02
2018-12-22T01:03:55.008Z,89.15
2018-12-22T01:06:23.816Z,89.29
2018-12-22T01:08:52.555Z,88.91
2018-12-22T01:11:21.796Z,89.21
2018-12-22T01:13:50.502Z,88.92
2018-12-22T01:16:19.184Z,88.77
2018-12-22T01:18:47.774Z,88.57
2018-12-22T01:21:16.224Z,88.96
2018-12-22T01:23:44.671Z,88.87
2018-12-22T01:26:13.158Z,88.43
2018-12-22T01:28:41.573Z,88.81
2018-12-22T01:31:10.420Z,88.63
2018-12-22T01:33:38.886Z,88.87
2018-12-22T01:36:07.363Z,88.99
2018-12-22T01:38:36.293Z,88.91
2018-12-22T01:41:04.767Z,89.03
2018-12-22T01:43:33.205Z,89.71
2018-12-22T01:46:01.655Z,89.87
2018-12-22T01:48:30.136Z,89.51
2018-12-22T01:50:58.584Z,89.44
2018-12-22T01:53:27.067Z,89.16
2018-12-22T01:55:55.538Z,89.02
2018-12-22T01:58:23.969Z,88.56
2018-12-22T02:00:53.546Z,88.59
2018-12-22T02:03:22.059Z,88.78
2018-12-22T02:05:50.557Z,87.98
2018-12-22T02:08:19.216Z,88.40
2018-12-22T02:10:47.686Z,88.19
2018-12-22T02:13:16.164Z,87.36
2018-12-22T02:15:44.883Z,87.21
2018-12-22T02:18:13.869Z,87.49
2018-12-22T02:20:42.749Z,88.16
2018-12-22T02:23:11.431Z,87.97
2018-12-22T02:25:39.908Z,87.89
2018-12-22T02:28:08.815Z,87.33
2018-12-22T02:30:37.276Z,87.75
2018-12-22T02:33:06.443Z,87.14
2018-12-22T02:35:35.069Z,88.05
2018-12-22T02:38:03.564Z,88.54
2018-12-22T02:40:32.307Z,89.31
2018-12-22T02:43:00.835Z,89.14
2018-12-22T02:45:29.338Z,89.13
2018-12-22T02:47:58.000Z,89.10
2018-12-22T02:50:26.769Z,87.95
2018-12-22T02:52:55.253Z,88.82
2018-12-22T02:55:24.669Z,86.94
2018-12-22T02:57:53.123Z,87.70
2018-12-22T03:00:21.632Z,87.98
2018-12-22T03:02:50.059Z,86.99
2018-12-22T03:05:18.531Z,88.40
2018-12-22T03:07:47.015Z,88.85
2018-12-22T03:10:15.707Z,88.60
2018-12-22T03:12:44.368Z,88.55
2018-12-22T03:15:12.860Z,88.67
2018-12-22T03:17:41.530Z,89.16
2018-12-22T03:20:10.359Z,88.51
2018-12-22T03:22:38.840Z,87.97
2018-12-22T03:25:07.494Z,87.48
2018-12-22T03:27:36.090Z,87.87
2018-12-22T03:30:05.351Z,87.33
2018-12-22T03:32:34.835Z,87.50
2018-12-22T03:35:03.503Z,87.67
2018-12-22T03:37:31.999Z,88.10
2018-12-22T03:40:00.479Z,88.16
2018-12-22T03:42:28.913Z,87.83
2018-12-22T03:44:57.413Z,87.45
2018-12-22T03:47:26.084Z,87.41
2018-12-22T03:49:54.795Z,87.17
2018-12-22T03:52:23.317Z,87.02
2018-12-22T03:54:52.042Z,87.12
2018-12-22T03:57:20.459Z,87.29
2018-12-22T03:59:50.642Z,87.58
2018-12-22T04:02:19.067Z,87.57
2018-12-22T04:04:47.736Z,87.78
2018-12-22T04:07:16.226Z,87.86
2018-12-22T04:09:44.647Z,87.88
2018-12-22T04:12:13.103Z,87.64
2018-12-22T04:14:41.670Z,87.66
2018-12-22T04:17:10.124Z,87.83
2018-12-22T04:19:38.565Z,87.58
2018-12-22T04:22:07.287Z,87.50
2018-12-22T04:24:36.847Z,86.41
2018-12-22T04:27:05.269Z,87.24
2018-12-22T04:29:34.417Z,87.00
2018-12-22T04:32:03.101Z,86.67
2018-12-22T04:34:31.777Z,87.05
2018-12-22T04:37:00.267Z,87.56
2018-12-22T04:39:28.989Z,87.09
2018-12-22T04:41:57.659Z,87.38
2018-12-22T04:44:26.159Z,87.54
2018-12-22T04:46:55.483Z,87.96
2018-12-22T04:49:23.920Z,87.61
2018-12-22T04:51:52.400Z,87.68
2018-12-22T04:54:21.105Z,87.47
2018-12-22T04:56:49.592Z,87.83
2018-12-22T04:59:18.091Z,88.11
2018-12-22T05:01:46.560Z,87.89
2018-12-22T05:04:14.991Z,87.91
2018-12-22T05:06:43.470Z,88.15
2018-12-22T05:09:11.932Z,86.77
2018-12-22T05:11:40.424Z,87.50
2018-12-22T05:14:09.912Z,88.49
2018-12-22T05:16:38.582Z,88.61
2018-12-22T05:19:07.018Z,88.27
2018-12-22T05:21:36.438Z,88.04
2018-12-22T05:24:05.132Z,89.19
2018-12-22T05:26:33.592Z,89.52
2018-12-22T05:29:02.146Z,89.35
2018-12-22T05:31:30.583Z,89.51
2018-12-22T05:33:59.103Z,89.11
2018-12-22T05:36:27.630Z,89.30
2018-12-22T05:38:56.356Z,88.82
2018-12-22T05:41:25.042Z,89.02
2018-12-22T05:43:53.751Z,88.71
2018-12-22T05:46:22.581Z,88.56
2018-12-22T05:48:51.267Z,88.40
2018-12-22T05:51:19.767Z,88.60
2018-12-22T05:53:48.234Z,88.88
2018-12-22T05:56:16.679Z,89.02
2018-12-22T05:58:45.187Z,88.44
2018-12-22T06:01:16.316Z,88.63
2018-12-22T06:03:44.820Z,89.45
2018-12-22T06:06:13.501Z,89.27
2018-12-22T06:08:42.229Z,89.46
2018-12-22T06:11:13.954Z,89.48
2018-12-22T06:14:00.672Z,88.72
2018-12-22T06:16:29.196Z,89.14
2018-12-22T06:18:57.608Z,89.09
2018-12-22T06:21:26.485Z,89.11
2018-12-22T06:23:54.981Z,88.72
2018-12-22T06:26:24.897Z,88.97
2018-12-22T06:28:53.342Z,89.01
2018-12-22T06:31:21.824Z,89.15
2018-12-22T06:33:50.288Z,88.73
2018-12-22T06:36:19.181Z,88.59
2018-12-22T06:38:47.690Z,93.92
2018-12-22T06:41:16.164Z,89.19
2018-12-22T06:43:44.648Z,86.52
2018-12-22T06:46:13.145Z,87.05
2018-12-22T06:48:41.617Z,87.53
2018-12-22T06:51:10.074Z,88.92
2018-12-22T06:53:38.587Z,89.65
2018-12-22T06:56:07.068Z,90.22
2018-12-22T06:58:35.548Z,89.88
2018-12-22T07:01:04.059Z,90.00
2018-12-22T07:03:32.553Z,90.21
2018-12-22T07:06:01.207Z,89.96
2018-12-22T07:08:29.769Z,89.75
2018-12-22T07:10:58.578Z,89.45
2018-12-22T07:13:27.017Z,89.55
2018-12-22T07:15:55.532Z,89.42
2018-12-22T07:18:24.097Z,89.39
2018-12-22T07:20:52.777Z,89.14
2018-12-22T07:23:21.274Z,88.28
2018-12-22T07:25:49.718Z,87.26
2018-12-22T07:28:18.163Z,91.72
2018-12-22T07:30:46.672Z,91.28
2018-12-22T07:33:15.133Z,87.65
2018-12-22T07:35:43.597Z,85.61
2018-12-22T07:38:12.108Z,81.87
2018-12-22T07:40:40.913Z,79.74
2018-12-22T07:43:09.384Z,79.98
2018-12-22T07:45:38.176Z,80.96
2018-12-22T07:48:06.639Z,81.35
2018-12-22T07:50:35.106Z,80.28
2018-12-22T07:53:03.586Z,81.43
2018-12-22T07:55:32.086Z,82.05
2018-12-22T07:58:00.879Z,82.92
2018-12-22T08:00:34.752Z,84.15
2018-12-22T08:03:00.573Z,83.14
2018-12-22T08:05:29.084Z,83.60
2018-12-22T08:07:57.585Z,84.46
2018-12-22T08:10:26.302Z,83.82
2018-12-22T08:12:54.728Z,83.87
2018-12-22T08:15:23.243Z,84.72
2018-12-22T08:17:51.724Z,84.84
2018-12-22T08:20:20.537Z,84.46
2018-12-22T08:22:51.091Z,84.14
2018-12-22T08:25:19.545Z,83.57
2018-12-22T08:27:47.989Z,83.57
2018-12-22T08:30:16.472Z,83.32
2018-12-22T08:32:45.172Z,82.96
2018-12-22T08:35:13.639Z,82.76
2018-12-22T08:37:42.152Z,81.98
2018-12-22T08:40:10.723Z,81.28
2018-12-22T08:42:39.182Z,80.45
2018-12-22T08:45:07.969Z,80.09
2018-12-22T08:47:36.408Z,80.37
2018-12-22T08:50:09.300Z,80.96
2018-12-22T08:52:37.797Z,80.06
2018-12-22T08:55:06.947Z,79.41
2018-12-22T08:57:35.388Z,79.64
2018-12-22T09:00:06.225Z,79.06
2018-12-22T09:02:34.683Z,78.95
2018-12-22T09:05:03.344Z,78.61
2018-12-22T09:07:31.844Z,78.54
2018-12-22T09:10:00.312Z,77.52
2018-12-22T09:12:28.759Z,76.97
2018-12-22T09:14:57.251Z,76.83
2018-12-22T09:17:25.717Z,76.44
2018-12-22T09:19:54.137Z,76.05
2018-12-22T09:22:22.626Z,75.89
2018-12-22T09:24:51.323Z,76.23
2018-12-22T09:27:19.782Z,76.53
2018-12-22T09:29:48.265Z,76.83
2018-12-22T09:32:16.693Z,76.48
2018-12-22T09:34:45.141Z,76.61
2018-12-22T09:37:13.990Z,76.56
2018-12-22T09:39:42.420Z,76.26
2018-12-22T09:42:10.865Z,76.62
2018-12-22T09:44:39.361Z,76.63
2018-12-22T09:47:07.786Z,76.25
2018-12-22T09:49:36.271Z,75.86
2018-12-22T09:52:04.776Z,75.49
2018-12-22T09:54:33.202Z,75.07
2018-12-22T09:57:01.657Z,74.54
2018-12-22T09:59:30.136Z,74.89
2018-12-22T10:01:58.564Z,74.65
2018-12-22T10:04:27.771Z,74.39
2018-12-22T10:06:56.283Z,74.10
2018-12-22T10:09:24.725Z,74.03
2018-12-22T10:11:53.141Z,73.58
2018-12-22T10:14:21.651Z,73.40
2018-12-22T10:16:50.092Z,73.96
2018-12-22T10:19:18.571Z,75.47
2018-12-22T10:21:47.076Z,74.98
2018-12-22T10:24:15.527Z,74.77
2018-12-22T10:26:44.230Z,75.84
2018-12-22T10:29:12.744Z,75.20
2018-12-22T10:31:41.454Z,74.82
2018-12-22T10:34:12.520Z,74.19
2018-12-22T10:36:42.436Z,73.87
2018-12-22T10:39:13.085Z,73.99
2018-12-22T10:41:41.520Z,73.27
2018-12-22T10:44:10.000Z,73.94
2018-12-22T10:46:38.396Z,74.47
2018-12-22T10:49:06.823Z,74.40
2018-12-22T10:51:35.301Z,74.38
2018-12-22T10:54:03.853Z,74.18
2018-12-22T10:56:32.899Z,74.02
2018-12-22T10:59:01.380Z,73.39
2018-12-22T11:01:29.799Z,72.66
2018-12-22T11:03:58.272Z,72.97
2018-12-22T11:06:26.744Z,71.95
2018-12-22T11:08:56.919Z,72.45
2018-12-22T11:11:25.336Z,72.64
2018-12-22T11:13:53.804Z,72.69
2018-12-22T11:16:22.617Z,72.78
2018-12-22T11:18:53.065Z,73.20
2018-12-22T11:21:22.387Z,73.69
2018-12-22T11:23:51.453Z,74.06
2018-12-22T11:26:21.422Z,74.31
2018-12-22T11:28:50.279Z,74.58
2018-12-22T11:31:18.742Z,74.54
2018-12-22T11:33:47.189Z,74.00
2018-12-22T11:36:16.080Z,73.64
2018-12-22T11:38:44.645Z,74.23
2018-12-22T11:41:13.089Z,74.33
2018-12-22T11:43:43.275Z,74.69
2018-12-22T11:46:11.689Z,74.96
2018-12-22T11:48:41.077Z,75.18
2018-12-22T11:51:09.690Z,75.15
2018-12-22T11:53:38.156Z,75.56
2018-12-22T11:56:06.637Z,75.64
2018-12-22T11:58:35.213Z,75.41
2018-12-22T12:01:05.498Z,75.34
2018-12-22T12:03:33.936Z,74.56
2018-12-22T12:06:02.746Z,74.70
2018-12-22T12:08:31.188Z,74.91
2018-12-22T12:11:00.543Z,74.29
2018-12-22T12:13:29.146Z,74.10
2018-12-22T12:16:00.350Z,74.28
2018-12-22T12:21:27.046Z,73.89
2018-12-22T12:23:55.506Z,74.19
2018-12-22T12:26:23.946Z,73.39
2018-12-22T12:28:52.386Z,73.95
2018-12-22T12:31:21.398Z,74.68
2018-12-22T12:33:52.255Z,75.00
2018-12-22T12:36:20.763Z,74.43
2018-12-22T12:38:49.277Z,75.00
2018-12-22T12:41:17.772Z,75.56
2018-12-22T12:43:46.259Z,75.80
2018-12-22T12:46:14.737Z,75.30
2018-12-22T12:48:43.182Z,74.52
2018-12-22T12:51:11.673Z,75.02
2018-12-22T12:53:41.860Z,75.08
2018-12-22T12:56:10.557Z,74.11
2018-12-22T12:58:39.262Z,72.41
2018-12-22T13:01:07.712Z,71.12
2018-12-22T13:03:36.169Z,70.42
2018-12-22T13:06:04.673Z,70.02
2018-12-22T13:08:33.133Z,71.00
2018-12-22T13:11:01.610Z,71.63
2018-12-22T13:13:36.568Z,71.85
2018-12-22T13:16:05.017Z,72.07
2018-12-22T13:18:33.942Z,72.81
2018-12-22T13:21:04.830Z,72.27
2018-12-22T13:23:33.342Z,72.48
2018-12-22T13:26:02.061Z,73.10
2018-12-22T13:28:32.703Z,73.26
2018-12-22T13:31:01.182Z,73.31
2018-12-22T13:33:32.667Z,73.36
2018-12-22T13:36:01.867Z,73.09
2018-12-22T13:38:30.436Z,73.09
2018-12-22T13:40:58.925Z,73.41
2018-12-22T13:43:27.417Z,72.66
2018-12-22T13:45:55.847Z,72.21
2018-12-22T13:48:24.515Z,72.28
2018-12-22T13:50:53.532Z,72.47
2018-12-22T13:53:22.088Z,71.60
2018-12-22T13:55:50.782Z,72.11
2018-12-22T13:58:19.267Z,72.38
2018-12-22T14:00:47.809Z,71.46
2018-12-22T14:03:16.932Z,71.34
2018-12-22T14:05:45.496Z,72.08
2018-12-22T14:08:13.948Z,72.10
2018-12-22T14:10:42.516Z,72.59
2018-12-22T14:13:11.000Z,72.52
2018-12-22T14:15:41.211Z,72.79
2018-12-22T14:18:15.999Z,72.94
2018-12-22T14:20:46.243Z,73.29
2018-12-22T14:23:14.818Z,72.92
2018-12-22T14:25:43.312Z,74.47
2018-12-22T14:28:11.781Z,77.16
2018-12-22T14:30:41.264Z,73.53
2018-12-22T14:33:10.072Z,71.65
2018-12-22T14:35:38.521Z,72.63
2018-12-22T14:38:07.059Z,73.21
2018-12-22T14:40:35.997Z,73.44
2018-12-22T14:43:04.457Z,73.74
2018-12-22T14:45:33.937Z,74.10
2018-12-22T14:48:03.603Z,74.40
2018-12-22T14:50:32.921Z,74.53
2018-12-22T14:53:01.427Z,74.48
2018-12-22T14:55:32.109Z,74.06
2018-12-22T14:58:02.206Z,73.62
2018-12-22T15:00:32.527Z,74.19
2018-12-22T15:03:01.053Z,75.02
2018-12-22T15:05:29.712Z,75.46
2018-12-22T15:07:58.371Z,78.56
2018-12-22T15:10:27.364Z,75.89
2018-12-22T15:12:55.886Z,76.44
2018-12-22T15:15:24.413Z,77.23
2018-12-22T15:17:53.194Z,77.34
2018-12-22T15:20:26.492Z,78.20
2018-12-22T15:22:55.220Z,78.96
2018-12-22T15:25:23.723Z,78.60
2018-12-22T15:27:52.253Z,78.58
2018-12-22T15:30:21.091Z,78.91
2018-12-22T15:32:54.494Z,80.04
2018-12-22T15:35:20.068Z,80.46
2018-12-22T15:37:48.527Z,81.28
2018-12-22T15:40:18.671Z,82.04
2018-12-22T15:42:47.738Z,82.14
2018-12-22T15:45:17.464Z,82.22
2018-12-22T15:47:47.288Z,82.12
2018-12-22T15:50:20.902Z,82.75
2018-12-22T15:52:49.389Z,83.20
2018-12-22T15:55:17.910Z,83.47
2018-12-22T15:57:46.603Z,83.62
2018-12-22T16:00:15.137Z,83.03
2018-12-22T16:02:52.792Z,83.58
2018-12-22T16:05:15.457Z,84.08
2018-12-22T16:07:44.097Z,83.51
2018-12-22T16:10:16.016Z,83.38
2018-12-22T16:12:45.353Z,83.49
2018-12-22T16:15:18.174Z,83.42
2018-12-22T16:17:46.816Z,83.91
2018-12-22T16:20:15.264Z,83.84
2018-12-22T16:22:48.061Z,83.83
2018-12-22T16:25:16.572Z,84.77
2018-12-22T16:27:45.240Z,84.39
2018-12-22T16:30:18.268Z,84.58
2018-12-22T16:32:47.322Z,85.21
2018-12-22T16:35:15.926Z,84.76
2018-12-22T16:37:44.431Z,85.60
2018-12-22T16:40:13.330Z,85.45
2018-12-22T16:42:41.777Z,86.19
2018-12-22T16:45:16.261Z,86.76
2018-12-22T16:47:44.767Z,86.74
2018-12-22T16:50:15.749Z,83.65
2018-12-22T16:52:44.557Z,83.76
2018-12-22T16:55:16.283Z,85.68
2018-12-22T16:58:02.301Z,85.56
2018-12-22T17:00:34.865Z,85.57
2018-12-22T17:03:10.766Z,86.27
2018-12-22T17:05:34.971Z,86.79
2018-12-22T17:08:05.689Z,87.18
2018-12-22T17:10:34.335Z,87.60
2018-12-22T17:13:02.839Z,87.64
2018-12-22T17:15:31.292Z,87.64
2018-12-22T17:17:59.762Z,87.15
2018-12-22T17:20:28.845Z,86.65
2018-12-22T17:23:08.036Z,87.13
2018-12-22T17:25:38.866Z,87.45
2018-12-22T17:28:07.400Z,86.72
2018-12-22T17:30:36.796Z,86.99
2018-12-22T17:33:05.469Z,86.16
2018-12-22T17:35:34.368Z,85.21
2018-12-22T17:38:03.217Z,84.87
2018-12-22T17:40:31.787Z,84.83
2018-12-22T17:43:00.316Z,85.02
2018-12-22T17:45:28.836Z,85.54
2018-12-22T17:47:57.335Z,86.24
2018-12-22T17:50:25.895Z,86.11
2018-12-22T17:52:55.427Z,83.29
2018-12-22T17:55:25.045Z,78.99
2018-12-22T17:57:55.786Z,74.74
2018-12-22T18:00:24.268Z,72.80
2018-12-22T18:02:53.439Z,71.84
2018-12-22T18:05:23.126Z,71.74
2018-12-22T18:07:52.714Z,71.46
2018-12-22T18:10:21.248Z,71.32
2018-12-22T18:12:50.213Z,71.60
2018-12-22T18:15:22.638Z,73.35
2018-12-22T18:17:51.472Z,75.02
2018-12-22T18:20:20.878Z,76.46
2018-12-22T18:22:49.540Z,77.10
2018-12-22T18:25:21.232Z,76.45
2018-12-22T18:27:52.414Z,75.78
2018-12-22T18:30:21.297Z,73.94
2018-12-22T18:32:49.763Z,73.39
2018-12-22T18:35:18.891Z,72.67
2018-12-22T18:37:47.607Z,71.21
2018-12-22T18:40:19.873Z,71.10
2018-12-22T18:42:49.674Z,70.98
2018-12-22T18:45:18.279Z,70.53
2018-12-22T18:47:47.467Z,69.52
2018-12-22T18:50:21.479Z,68.99
2018-12-22T18:52:49.981Z,69.00
2018-12-22T18:55:18.767Z,69.09
2018-12-22T18:57:50.313Z,68.21
2018-12-22T19:00:21.318Z,67.87
2018-12-22T19:02:51.090Z,68.21
2018-12-22T19:05:22.209Z,68.22
2018-12-22T19:07:50.894Z,68.77
2018-12-22T19:10:25.039Z,68.78
2018-12-22T19:12:53.537Z,68.45
2018-12-22T19:15:22.124Z,68.91
2018-12-22T19:17:50.748Z,68.97
2018-12-22T19:20:28.687Z,69.23
2018-12-22T19:22:57.263Z,69.66
2018-12-22T19:25:28.174Z,70.51
2018-12-22T19:27:56.866Z,71.07
2018-12-22T19:30:25.407Z,71.47
2018-12-22T19:32:54.931Z,71.96
2018-12-22T19:35:23.731Z,72.14
2018-12-22T19:37:52.215Z,72.64
2018-12-22T19:40:22.448Z,73.89
2018-12-22T19:42:52.711Z,74.63
2018-12-22T19:45:23.478Z,74.70
2018-12-22T19:47:53.217Z,75.26
2018-12-22T19:50:21.751Z,75.68
2018-12-22T19:52:51.296Z,76.25
2018-12-22T19:55:20.059Z,76.47
2018-12-22T19:57:48.682Z,76.99
2018-12-22T20:00:17.190Z,77.14
2018-12-22T20:02:46.256Z,77.45
2018-12-22T20:05:15.725Z,78.01
2018-12-22T20:07:44.336Z,78.28
2018-12-22T20:10:12.958Z,78.06
2018-12-22T20:12:41.472Z,78.49
2018-12-22T20:15:10.020Z,78.68
2018-12-22T20:17:38.796Z,78.82
2018-12-22T20:20:09.659Z,78.59
2018-12-22T20:22:38.216Z,78.90
2018-12-22T20:25:06.842Z,78.98
2018-12-22T20:27:35.386Z,78.51
2018-12-22T20:30:04.904Z,78.87
2018-12-22T20:32:33.599Z,77.14
2018-12-22T20:35:02.673Z,77.32
2018-12-22T20:37:31.400Z,77.71
2018-12-22T20:40:00.917Z,78.62
2018-12-22T20:42:29.506Z,78.87
2018-12-22T20:44:59.352Z,79.02
2018-12-22T20:47:27.959Z,79.28
2018-12-22T20:49:56.457Z,79.66
2018-12-22T20:52:25.582Z,77.69
2018-12-22T20:54:54.326Z,76.93
2018-12-22T20:57:23.050Z,77.42
2018-12-22T20:59:52.569Z,78.48
2018-12-22T21:02:21.100Z,79.28
2018-12-22T21:04:50.090Z,79.40
2018-12-22T21:07:18.854Z,79.74
2018-12-22T21:09:47.668Z,80.17
2018-12-22T21:12:17.349Z,80.64
2018-12-22T21:14:46.542Z,80.62
2018-12-22T21:17:15.131Z,81.09
2018-12-22T21:19:43.999Z,81.56
2018-12-22T21:22:13.374Z,80.89
2018-12-22T21:24:41.946Z,80.64
2018-12-22T21:27:11.061Z,80.58
2018-12-22T21:29:39.763Z,80.32
2018-12-22T21:32:09.367Z,79.88
2018-12-22T21:34:38.907Z,80.55
2018-12-22T21:37:07.586Z,80.33
2018-12-22T21:39:37.047Z,80.37
2018-12-22T21:42:05.597Z,80.47
2018-12-22T21:44:34.188Z,80.57
2018-12-22T21:47:03.657Z,80.52
2018-12-22T21:49:32.170Z,80.64
2018-12-22T21:52:01.354Z,81.01
2018-12-22T21:54:30.015Z,81.35
2018-12-22T21:56:58.627Z,81.46
2018-12-22T21:59:27.877Z,81.80
2018-12-22T22:01:56.550Z,81.92
2018-12-22T22:04:26.181Z,81.87
2018-12-22T22:06:54.714Z,81.94
2018-12-22T22:09:23.162Z,82.08
2018-12-22T22:11:52.073Z,82.01
2018-12-22T22:14:20.658Z,82.58
2018-12-22T22:16:49.137Z,82.21
2018-12-22T22:19:17.570Z,82.20
2018-12-22T22:21:46.038Z,82.25
2018-12-22T22:24:14.504Z,82.63
2018-12-22T22:26:43.123Z,82.84
2018-12-22T22:29:12.563Z,82.71
2018-12-22T22:31:41.042Z,82.64
2018-12-22T22:34:09.811Z,82.51
2018-12-22T22:36:38.417Z,82.54
2018-12-22T22:39:07.112Z,82.53
2018-12-22T22:41:35.625Z,82.88
2018-12-22T22:44:04.173Z,82.97
2018-12-22T22:46:33.038Z,82.79
2018-12-22T22:49:01.470Z,82.72
2018-12-22T22:51:29.937Z,82.72
2018-12-22T22:53:58.380Z,82.75
2018-12-22T22:56:26.806Z,82.82
2018-12-22T22:58:55.268Z,83.21
2018-12-22T23:01:24.146Z,83.22
2018-12-22T23:03:52.827Z,83.37
2018-12-22T23:06:21.357Z,83.40
2018-12-22T23:08:49.866Z,83.62
2018-12-22T23:11:18.344Z,84.06
2018-12-22T23:13:46.777Z,84.29
2018-12-22T23:16:15.228Z,84.83
2018-12-22T23:18:43.680Z,85.49
2018-12-22T23:21:12.161Z,87.23
2018-12-22T23:23:40.591Z,87.57
2018-12-22T23:26:09.037Z,88.14
2018-12-22T23:28:37.490Z,88.58
2018-12-22T23:31:05.989Z,88.40
2018-12-22T23:33:34.413Z,86.93
2018-12-22T23:36:02.839Z,84.00
2018-12-22T23:38:31.296Z,81.77
2018-12-22T23:40:59.741Z,80.49
2018-12-22T23:43:28.167Z,81.28
2018-12-22T23:45:56.626Z,82.18
2018-12-22T23:48:25.294Z,81.41
2018-12-22T23:50:53.910Z,79.44
2018-12-22T23:53:22.366Z,79.21
2018-12-22T23:55:50.845Z,79.70
2018-12-22T23:58:19.315Z,80.54
